Time;durP1;ratioP1;P1;durP2;ratioP2;P2;SDS_P1;SDS_P2;PMS_P1;PMS_P2;Temp;Humidity;BMP_temperature;BMP_pressure;BME280_temperature;BME280_humidity;BME280_pressure;Samples;Min_cycle;Max_cycle;Signal;HPM_P1;HPM_P2
2023/07/21 00:00:18;;;;;;;2.13;1.73;;;14.50;99.90;;;;;;5053197;28;20076;-71
2023/07/21 00:02:47;;;;;;;4.63;1.90;;;14.40;99.90;;;;;;5052924;28;20103;-70
2023/07/21 00:05:16;;;;;;;1.80;1.60;;;14.40;99.90;;;;;;5035648;28;20080;-72
2023/07/21 00:07:42;;;;;;;2.63;1.98;;;14.40;99.90;;;;;;5035366;28;20081;-71
2023/07/21 00:10:09;;;;;;;5.45;2.17;;;14.30;99.90;;;;;;5053178;28;20056;-71
2023/07/21 00:12:36;;;;;;;2.75;1.75;;;14.30;99.90;;;;;;5053402;28;20085;-71
2023/07/21 00:15:03;;;;;;;2.80;2.00;;;14.30;99.90;;;;;;5053041;28;20052;-70
2023/07/21 00:17:30;;;;;;;2.00;1.80;;;14.30;99.90;;;;;;5035952;28;20069;-71
2023/07/21 00:20:09;;;;;;;2.35;1.80;;;14.20;99.90;;;;;;5053009;28;20072;-70
2023/07/21 00:22:35;;;;;;;2.85;2.10;;;14.10;99.90;;;;;;5035565;28;20136;-70
2023/07/21 00:25:05;;;;;;;2.72;2.42;;;14.10;99.90;;;;;;5034783;28;20087;-73
2023/07/21 00:27:34;;;;;;;4.78;2.42;;;14.10;99.90;;;;;;5052954;28;20049;-70
2023/07/21 00:30:00;;;;;;;2.90;1.90;;;14.10;99.90;;;;;;5035302;28;20457;-71
2023/07/21 00:32:26;;;;;;;2.78;1.77;;;14.10;99.90;;;;;;5019258;28;20041;-72
2023/07/21 00:34:52;;;;;;;3.30;2.35;;;14.00;99.90;;;;;;5052674;28;20389;-72
2023/07/21 00:37:17;;;;;;;2.88;2.25;;;14.00;99.90;;;;;;5052634;28;20099;-72
2023/07/21 00:39:47;;;;;;;2.47;2.28;;;13.90;99.90;;;;;;5034706;28;20076;-75
2023/07/21 00:42:13;;;;;;;2.60;2.15;;;13.90;99.90;;;;;;5052621;28;20049;-71
2023/07/21 00:44:39;;;;;;;2.72;1.80;;;13.90;99.90;;;;;;5052581;28;20045;-72
2023/07/21 00:47:05;;;;;;;5.15;2.30;;;13.90;99.90;;;;;;5052484;28;20045;-69
2023/07/21 00:49:33;;;;;;;2.55;2.30;;;13.90;99.90;;;;;;5034487;28;20466;-71
2023/07/21 00:51:58;;;;;;;4.78;2.25;;;13.90;99.90;;;;;;5052767;28;20067;-71
2023/07/21 00:54:24;;;;;;;2.40;2.20;;;14.00;99.90;;;;;;5053267;28;20479;-72
2023/07/21 00:56:51;;;;;;;2.90;1.88;;;14.00;99.90;;;;;;5052328;28;20045;-70
2023/07/21 00:59:17;;;;;;;4.30;2.33;;;14.00;99.90;;;;;;5052459;28;20424;-69
2023/07/21 01:01:43;;;;;;;3.13;1.70;;;14.00;99.90;;;;;;5052335;28;20045;-71
2023/07/21 01:04:09;;;;;;;2.55;2.13;;;13.90;99.90;;;;;;5035029;28;20085;-70
2023/07/21 01:06:37;;;;;;;2.72;1.90;;;13.90;99.90;;;;;;5034583;28;20041;-70
2023/07/21 01:09:06;;;;;;;3.15;2.22;;;13.80;99.90;;;;;;5052609;28;20053;-72
2023/07/21 01:11:34;;;;;;;2.58;2.20;;;13.80;99.90;;;;;;5052164;28;20059;-69
2023/07/21 01:14:02;;;;;;;2.55;1.98;;;13.70;99.90;;;;;;5052925;28;20045;-71
2023/07/21 01:16:29;;;;;;;2.47;1.90;;;13.70;99.90;;;;;;5056437;28;20496;-71
2023/07/21 01:18:56;;;;;;;4.18;2.30;;;13.70;99.90;;;;;;5056694;28;20045;-71
2023/07/21 01:21:37;;;;;;;2.88;2.00;;;13.60;99.90;;;;;;5056223;28;20045;-70
2023/07/21 01:24:14;;;;;;;3.08;2.13;;;13.60;99.90;;;;;;5056182;28;20044;-70
2023/07/21 01:26:43;;;;;;;4.38;2.72;;;13.50;99.90;;;;;;5056107;28;20048;-71
2023/07/21 01:29:09;;;;;;;3.13;2.30;;;13.40;99.90;;;;;;5056049;28;20140;-70
2023/07/21 01:31:37;;;;;;;3.30;1.77;;;13.30;99.90;;;;;;5038202;28;20106;-74
2023/07/21 01:34:06;;;;;;;2.35;2.15;;;13.30;99.90;;;;;;5038127;28;20124;-69
2023/07/21 01:36:32;;;;;;;2.20;2.00;;;13.30;99.90;;;;;;5038121;28;20045;-69
2023/07/21 01:38:59;;;;;;;3.75;1.98;;;13.30;99.90;;;;;;5038413;28;20387;-70
2023/07/21 01:41:26;;;;;;;2.63;2.22;;;13.20;99.90;;;;;;5038198;28;20049;-71
2023/07/21 01:43:53;;;;;;;2.50;2.30;;;13.10;99.90;;;;;;5056284;28;20041;-71
2023/07/21 01:46:19;;;;;;;2.67;2.10;;;13.10;99.90;;;;;;5055845;28;20106;-71
2023/07/21 01:48:46;;;;;;;2.28;2.05;;;13.10;99.90;;;;;;5055864;28;20041;-71
2023/07/21 01:51:14;;;;;;;5.10;2.25;;;13.10;99.90;;;;;;5055814;28;20049;-68
2023/07/21 01:53:45;;;;;;;2.80;2.45;;;13.10;99.90;;;;;;5056015;28;20037;-71
2023/07/21 01:56:30;;;;;;;3.80;2.40;;;13.10;99.90;;;;;;5037837;28;20041;-69
2023/07/21 01:59:02;;;;;;;2.33;2.10;;;13.10;99.90;;;;;;5056669;28;20205;-69
2023/07/21 02:01:29;;;;;;;2.40;2.17;;;13.00;99.90;;;;;;5056299;28;20391;-68
2023/07/21 02:03:54;;;;;;;3.03;2.10;;;12.90;99.90;;;;;;5038363;28;20056;-68
2023/07/21 02:06:20;;;;;;;2.63;2.05;;;12.90;99.90;;;;;;5037942;28;20433;-69
2023/07/21 02:08:46;;;;;;;2.33;1.80;;;12.80;99.90;;;;;;5021322;28;20369;-69
2023/07/21 02:11:12;;;;;;;2.22;2.00;;;12.80;99.90;;;;;;5055301;28;20500;-70
2023/07/21 02:13:39;;;;;;;3.55;2.08;;;12.70;99.90;;;;;;5037645;28;20478;-69
2023/07/21 02:16:05;;;;;;;2.50;1.90;;;12.60;99.90;;;;;;5055312;28;20057;-69
2023/07/21 02:18:34;;;;;;;2.55;2.20;;;12.60;99.90;;;;;;5055667;28;20041;-69
2023/07/21 02:21:04;;;;;;;1.80;1.70;;;12.60;99.90;;;;;;5055168;28;20086;-70
2023/07/21 02:23:31;;;;;;;2.40;2.20;;;12.60;99.90;;;;;;5037629;28;20048;-70
2023/07/21 02:25:58;;;;;;;2.50;2.30;;;12.60;99.90;;;;;;5055113;28;20053;-69
2023/07/21 02:28:24;;;;;;;2.35;1.70;;;12.50;99.90;;;;;;5055115;28;20120;-69
2023/07/21 02:31:03;;;;;;;2.83;1.88;;;12.40;99.90;;;;;;5037329;28;20163;-69
2023/07/21 02:33:29;;;;;;;2.97;2.08;;;12.30;99.90;;;;;;5054943;28;20087;-69
2023/07/21 02:35:56;;;;;;;2.22;2.03;;;12.30;99.90;;;;;;5055200;28;20106;-69
2023/07/21 02:38:22;;;;;;;2.60;2.33;;;12.30;99.90;;;;;;5054607;28;20049;-69
2023/07/21 02:40:48;;;;;;;3.38;2.38;;;12.20;99.90;;;;;;5055191;28;20037;-70
2023/07/21 02:43:14;;;;;;;3.08;2.33;;;12.20;99.90;;;;;;5036896;28;20045;-69
2023/07/21 02:45:39;;;;;;;3.85;1.90;;;12.20;99.90;;;;;;5054838;28;20049;-69
2023/07/21 02:48:09;;;;;;;2.55;2.25;;;12.20;99.90;;;;;;5054767;28;20086;-69
2023/07/21 02:50:38;;;;;;;3.33;2.47;;;12.20;99.90;;;;;;5037328;28;20065;-70
2023/07/21 02:53:03;;;;;;;2.92;2.50;;;12.10;99.90;;;;;;5054587;28;20076;-69
2023/07/21 02:55:29;;;;;;;8.32;3.50;;;12.10;99.90;;;;;;5054514;28;20068;-69
2023/07/21 02:57:55;;;;;;;3.95;3.58;;;12.10;99.90;;;;;;5054492;28;20124;-69
2023/07/21 03:00:21;;;;;;;3.45;2.28;;;12.00;99.90;;;;;;5055121;28;20087;-70
2023/07/21 03:02:46;;;;;;;2.97;2.10;;;12.00;99.90;;;;;;5054783;28;20057;-70
2023/07/21 03:05:12;;;;;;;2.50;2.30;;;12.00;99.90;;;;;;5054493;28;20045;-69
2023/07/21 03:07:39;;;;;;;3.40;2.90;;;12.00;99.90;;;;;;5054230;28;20045;-70
2023/07/21 03:10:06;;;;;;;2.45;2.10;;;12.00;99.90;;;;;;5037378;28;20053;-69
2023/07/21 03:12:32;;;;;;;3.60;2.20;;;12.00;99.90;;;;;;5054182;28;20183;-70
2023/07/21 03:14:59;;;;;;;3.65;2.25;;;12.00;99.90;;;;;;5036643;28;20079;-70
2023/07/21 03:17:24;;;;;;;2.83;2.22;;;12.00;99.90;;;;;;5054543;28;20049;-71
2023/07/21 03:19:50;;;;;;;3.53;2.35;;;11.90;99.90;;;;;;5054128;28;20057;-70
2023/07/21 03:22:16;;;;;;;2.20;2.00;;;12.00;99.90;;;;;;5054045;28;20047;-70
2023/07/21 03:24:41;;;;;;;3.20;1.80;;;11.90;99.90;;;;;;5054069;28;20056;-70
2023/07/21 03:27:07;;;;;;;2.67;2.10;;;11.90;99.90;;;;;;5054333;28;20053;-70
2023/07/21 03:29:33;;;;;;;4.55;2.70;;;11.90;99.90;;;;;;5053976;28;20421;-69
2023/07/21 03:31:58;;;;;;;3.47;3.17;;;11.80;99.90;;;;;;5054181;28;20087;-70
2023/07/21 03:34:24;;;;;;;2.60;2.40;;;11.80;99.90;;;;;;5053837;28;20053;-69
2023/07/21 03:36:53;;;;;;;4.03;2.60;;;11.80;99.90;;;;;;5053337;28;20044;-69
2023/07/21 03:39:20;;;;;;;3.53;2.50;;;11.80;99.90;;;;;;5054331;28;20049;-70
2023/07/21 03:41:46;;;;;;;3.80;3.00;;;11.80;99.90;;;;;;5053854;28;20052;-69
2023/07/21 03:44:13;;;;;;;3.17;2.22;;;11.80;99.90;;;;;;5036456;28;20496;-69
2023/07/21 03:46:38;;;;;;;2.75;2.33;;;11.80;99.90;;;;;;5053792;28;20045;-69
2023/07/21 03:49:04;;;;;;;3.85;2.78;;;11.80;99.90;;;;;;5053878;28;20558;-69
2023/07/21 03:51:30;;;;;;;2.65;2.42;;;11.80;99.90;;;;;;5053567;28;20051;-69
2023/07/21 03:53:58;;;;;;;3.95;2.60;;;11.80;99.90;;;;;;5053684;28;20091;-69
2023/07/21 03:56:26;;;;;;;3.42;2.70;;;11.80;99.90;;;;;;5053436;28;20429;-69
2023/07/21 03:58:53;;;;;;;4.40;2.20;;;11.70;99.90;;;;;;5053701;28;20506;-69
2023/07/21 04:01:19;;;;;;;3.70;2.13;;;11.60;99.90;;;;;;5053350;28;20041;-69
2023/07/21 04:03:47;;;;;;;4.55;2.60;;;11.70;99.90;;;;;;5053154;28;20044;-69
2023/07/21 04:06:14;;;;;;;2.03;1.70;;;11.60;99.90;;;;;;5053254;28;20055;-69
2023/07/21 04:08:41;;;;;;;3.67;2.35;;;11.70;99.90;;;;;;5053179;28;20098;-69
2023/07/21 04:11:07;;;;;;;2.15;1.85;;;11.80;99.90;;;;;;5018986;28;20045;-69
2023/07/21 04:13:32;;;;;;;2.42;2.22;;;11.80;99.90;;;;;;5053053;28;20094;-69
2023/07/21 04:15:59;;;;;;;3.72;2.72;;;11.80;99.90;;;;;;5053579;28;20053;-69
2023/07/21 04:18:25;;;;;;;4.35;2.60;;;11.90;99.90;;;;;;5052762;28;20543;-69
2023/07/21 04:20:51;;;;;;;3.35;2.47;;;11.90;99.90;;;;;;5053019;28;20491;-70
2023/07/21 04:23:18;;;;;;;3.22;2.50;;;11.90;99.90;;;;;;5035407;28;20107;-69
2023/07/21 04:25:45;;;;;;;3.45;3.08;;;11.90;99.90;;;;;;5053388;28;20114;-69
2023/07/21 04:28:11;;;;;;;3.03;2.45;;;12.00;99.90;;;;;;5052912;28;20071;-69
2023/07/21 04:30:37;;;;;;;4.07;2.63;;;12.00;99.90;;;;;;5018879;28;20444;-69
2023/07/21 04:33:03;;;;;;;2.75;2.28;;;12.00;99.90;;;;;;5052734;28;20048;-70
2023/07/21 04:35:29;;;;;;;4.13;2.88;;;12.00;99.90;;;;;;5034903;28;20040;-69
2023/07/21 04:37:55;;;;;;;4.43;2.58;;;12.10;99.90;;;;;;5018889;28;20055;-70
2023/07/21 04:40:20;;;;;;;3.50;2.83;;;12.10;99.90;;;;;;5052606;28;20048;-70
2023/07/21 04:42:46;;;;;;;2.65;2.08;;;12.20;99.90;;;;;;5052891;28;20120;-69
2023/07/21 04:45:12;;;;;;;3.88;2.88;;;12.30;99.90;;;;;;5052600;28;20040;-69
2023/07/21 04:47:41;;;;;;;7.20;3.60;;;12.40;99.90;;;;;;5052679;28;20053;-70
2023/07/21 04:50:08;;;;;;;3.08;2.78;;;12.50;99.90;;;;;;5052999;28;20126;-69
2023/07/21 04:52:36;;;;;;;3.80;2.95;;;12.60;99.90;;;;;;5052500;28;20458;-70
2023/07/21 04:55:03;;;;;;;5.13;3.60;;;12.70;99.90;;;;;;5052493;28;20053;-70
2023/07/21 04:57:30;;;;;;;4.68;2.55;;;12.80;99.90;;;;;;5035498;28;20079;-69
2023/07/21 04:59:56;;;;;;;5.38;3.55;;;12.90;99.90;;;;;;5052450;28;20055;-69
2023/07/21 05:02:24;;;;;;;3.67;3.20;;;13.00;99.90;;;;;;5052920;28;20128;-69
2023/07/21 05:04:50;;;;;;;2.80;2.45;;;13.10;99.90;;;;;;5052412;28;20041;-69
2023/07/21 05:07:15;;;;;;;2.88;2.55;;;13.10;99.90;;;;;;5035100;28;20051;-69
2023/07/21 05:09:41;;;;;;;4.22;3.10;;;13.20;99.90;;;;;;5052649;28;20061;-69
2023/07/21 05:12:07;;;;;;;6.00;3.15;;;13.30;99.90;;;;;;5034596;28;20677;-69
2023/07/21 05:14:33;;;;;;;3.47;3.17;;;13.40;99.90;;;;;;5034712;28;20049;-69
2023/07/21 05:16:58;;;;;;;3.60;3.30;;;13.40;99.90;;;;;;5052637;28;20497;-69
2023/07/21 05:19:24;;;;;;;3.60;2.90;;;13.50;99.90;;;;;;5052268;28;20486;-69
2023/07/21 05:21:49;;;;;;;5.82;3.00;;;13.50;99.90;;;;;;5035011;28;20482;-69
2023/07/21 05:24:15;;;;;;;4.35;2.75;;;13.60;99.90;;;;;;5052540;28;20112;-69
2023/07/21 05:26:41;;;;;;;5.55;3.22;;;13.60;99.90;;;;;;5052831;28;20037;-69
2023/07/21 05:29:06;;;;;;;8.15;3.45;;;13.50;99.90;;;;;;5052106;28;20486;-69
2023/07/21 05:31:33;;;;;;;4.65;2.85;;;13.80;99.90;;;;;;5052599;28;20048;-69
2023/07/21 05:33:59;;;;;;;3.92;3.10;;;13.80;99.90;;;;;;5051968;28;20072;-69
2023/07/21 05:36:25;;;;;;;5.03;2.53;;;14.00;99.90;;;;;;5052097;28;20049;-69
2023/07/21 05:38:51;;;;;;;4.35;2.78;;;14.00;99.90;;;;;;5051987;28;20479;-70
2023/07/21 05:41:18;;;;;;;3.30;2.72;;;14.20;99.90;;;;;;5034532;28;20064;-70
2023/07/21 05:43:44;;;;;;;4.97;2.25;;;14.30;99.90;;;;;;5051969;28;20131;-69
2023/07/21 05:46:10;;;;;;;5.15;3.25;;;14.40;99.90;;;;;;5052324;28;20049;-69
2023/07/21 05:48:36;;;;;;;3.22;2.40;;;14.50;99.90;;;;;;5035137;28;20091;-69
2023/07/21 05:51:02;;;;;;;2.78;2.28;;;14.60;99.90;;;;;;5051947;28;20045;-69
2023/07/21 05:53:28;;;;;;;3.10;2.40;;;14.70;99.90;;;;;;5051881;28;20052;-69
2023/07/21 05:55:54;;;;;;;3.35;2.63;;;14.90;99.90;;;;;;5051805;28;20104;-69
2023/07/21 05:58:22;;;;;;;3.50;3.15;;;14.90;99.90;;;;;;5052017;28;20095;-69
2023/07/21 06:00:48;;;;;;;3.28;2.97;;;15.10;99.90;;;;;;5053708;28;20119;-69
2023/07/21 06:03:14;;;;;;;2.63;2.40;;;15.20;99.90;;;;;;5056137;28;20041;-70
2023/07/21 06:05:40;;;;;;;4.20;2.13;;;15.30;99.90;;;;;;5055628;28;20087;-68
2023/07/21 06:08:06;;;;;;;2.88;2.60;;;15.40;99.90;;;;;;5055376;28;20107;-68
2023/07/21 06:10:32;;;;;;;5.00;2.97;;;15.50;99.90;;;;;;5055991;28;20123;-68
2023/07/21 06:12:58;;;;;;;2.88;2.55;;;15.70;99.90;;;;;;5037946;28;20502;-69
2023/07/21 06:15:24;;;;;;;3.55;1.92;;;15.80;99.90;;;;;;5055024;28;20056;-68
2023/07/21 06:17:51;;;;;;;4.00;2.35;;;15.90;99.90;;;;;;5055152;28;20414;-69
2023/07/21 06:20:17;;;;;;;2.80;1.95;;;16.00;99.90;;;;;;5055276;28;20052;-68
2023/07/21 06:22:42;;;;;;;3.60;2.03;;;16.10;99.90;;;;;;5055270;28;20041;-68
2023/07/21 06:25:08;;;;;;;2.45;2.15;;;16.20;99.90;;;;;;5054915;28;20048;-69
2023/07/21 06:27:34;;;;;;;4.70;2.42;;;16.30;99.90;;;;;;5055787;28;20091;-68
2023/07/21 06:30:00;;;;;;;3.03;1.98;;;16.50;99.90;;;;;;5055384;28;20456;-68
2023/07/21 06:32:25;;;;;;;2.95;2.28;;;16.70;99.90;;;;;;5055055;28;20047;-68
2023/07/21 06:34:52;;;;;;;4.18;2.25;;;17.00;99.90;;;;;;5037019;28;20087;-69
2023/07/21 06:37:18;;;;;;;4.80;2.10;;;17.60;99.90;;;;;;5055074;28;20132;-69
2023/07/21 06:39:48;;;;;;;8.00;2.15;;;18.90;99.90;;;;;;5055608;28;20049;-69
2023/07/21 06:42:13;;;;;;;3.97;1.70;;;20.40;99.90;;;;;;5054984;28;20049;-69
2023/07/21 06:44:39;;;;;;;2.97;1.80;;;21.80;99.90;;;;;;5055267;28;20406;-69
2023/07/21 06:47:05;;;;;;;3.10;2.88;;;23.00;99.90;;;;;;5054777;28;20074;-69
2023/07/21 06:49:31;;;;;;;1.60;1.20;;;23.90;99.90;;;;;;5037182;28;20060;-69
2023/07/21 06:51:57;;;;;;;1.50;1.40;;;24.40;99.30;;;;;;5055294;28;20076;-70
2023/07/21 06:54:23;;;;;;;2.55;1.20;;;24.80;98.00;;;;;;5054861;28;20446;-69
2023/07/21 06:56:49;;;;;;;2.35;1.60;;;25.10;96.90;;;;;;5054811;28;20091;-70
2023/07/21 06:59:15;;;;;;;1.38;1.20;;;25.60;96.20;;;;;;5054645;28;20053;-70
2023/07/21 07:01:42;;;;;;;1.98;1.10;;;26.00;95.50;;;;;;5055538;28;20085;-70
2023/07/21 07:04:08;;;;;;;2.05;1.00;;;26.60;94.80;;;;;;5054508;28;20098;-70
2023/07/21 07:06:33;;;;;;;1.20;1.10;;;26.70;93.90;;;;;;5054462;28;20044;-69
2023/07/21 07:08:59;;;;;;;0.85;0.85;;;26.70;93.20;;;;;;5054450;28;20059;-69
2023/07/21 07:11:25;;;;;;;1.13;0.90;;;27.20;92.90;;;;;;5053569;28;20053;-71
2023/07/21 07:13:50;;;;;;;2.22;1.00;;;27.90;92.40;;;;;;5054064;28;20045;-71
2023/07/21 07:16:16;;;;;;;1.02;0.80;;;28.40;91.60;;;;;;5054922;28;20050;-70
2023/07/21 07:18:42;;;;;;;0.95;0.85;;;28.80;91.10;;;;;;5054249;28;20041;-71
2023/07/21 07:21:07;;;;;;;1.40;0.93;;;28.60;90.70;;;;;;5054554;28;20084;-71
2023/07/21 07:23:33;;;;;;;3.38;1.17;;;28.70;90.30;;;;;;5054506;28;20086;-71
2023/07/21 07:25:59;;;;;;;1.38;1.00;;;28.90;89.70;;;;;;5054086;28;20048;-70
2023/07/21 07:28:25;;;;;;;2.70;1.05;;;29.00;89.10;;;;;;5037282;28;20049;-71
2023/07/21 07:30:50;;;;;;;1.20;0.93;;;28.90;88.10;;;;;;5036588;28;20060;-70
2023/07/21 07:33:16;;;;;;;0.90;0.90;;;29.10;87.50;;;;;;5054375;28;20051;-71
2023/07/21 07:35:49;;;;;;;0.90;0.80;;;29.40;86.90;;;;;;5056915;28;20056;-71
2023/07/21 07:38:18;;;;;;;1.65;1.00;;;29.40;83.00;;;;;;5057096;28;20045;-71
2023/07/21 07:40:47;;;;;;;2.15;1.00;;;29.20;82.20;;;;;;5057429;28;20047;-71
2023/07/21 07:43:13;;;;;;;0.90;0.85;;;29.20;85.80;;;;;;5057505;28;20072;-71
2023/07/21 07:45:39;;;;;;;1.80;0.70;;;29.20;85.50;;;;;;5057106;28;20045;-71
2023/07/21 07:48:07;;;;;;;0.75;0.52;;;29.50;84.70;;;;;;5054940;28;20044;-71
2023/07/21 07:50:39;;;;;;;1.60;0.95;;;29.20;83.40;;;;;;5035981;28;20045;-71
2023/07/21 07:53:06;;;;;;;;;;;28.80;82.00;;;;;;5036510;28;20045;-70
2023/07/21 07:55:39;;;;;;;1.02;0.85;;;27.50;78.60;;;;;;5053589;28;19921;-71
2023/07/21 07:58:06;;;;;;;0.80;0.80;;;27.30;82.80;;;;;;5053230;28;20458;-71
2023/07/21 08:00:35;;;;;;;0.70;0.70;;;27.80;83.40;;;;;;5035879;28;20518;-71
2023/07/21 08:03:03;;;;;;;1.40;0.70;;;28.50;81.80;;;;;;5053556;28;20163;-71
2023/07/21 08:05:28;;;;;;;1.17;0.70;;;28.80;80.70;;;;;;5053617;28;20055;-71
2023/07/21 08:07:54;;;;;;;1.20;0.85;;;29.20;82.00;;;;;;5035566;28;20132;-71
2023/07/21 08:10:20;;;;;;;1.20;0.70;;;29.40;80.80;;;;;;5053732;28;20053;-71
2023/07/21 08:12:45;;;;;;;0.93;0.93;;;29.60;80.00;;;;;;5053678;28;20052;-71
2023/07/21 08:15:12;;;;;;;0.85;0.85;;;30.20;79.70;;;;;;5035949;28;20048;-70
2023/07/21 08:17:38;;;;;;;2.35;0.85;;;30.60;79.70;;;;;;5053456;28;20103;-71
2023/07/21 08:20:05;;;;;;;1.77;1.08;;;31.00;78.00;;;;;;5053039;28;20055;-71
2023/07/21 08:22:31;;;;;;;1.95;1.13;;;31.10;77.60;;;;;;5052790;28;20040;-71
2023/07/21 08:24:57;;;;;;;1.02;0.80;;;31.10;76.40;;;;;;5052733;28;20062;-71
2023/07/21 08:27:23;;;;;;;1.45;1.33;;;31.10;76.50;;;;;;5053478;28;20086;-71
2023/07/21 08:29:48;;;;;;;1.05;0.98;;;31.20;76.20;;;;;;5052495;28;20462;-71
2023/07/21 08:32:14;;;;;;;1.20;1.10;;;31.50;75.60;;;;;;5053204;28;20045;-71
2023/07/21 08:34:40;;;;;;;1.63;1.10;;;31.20;75.00;;;;;;5052776;28;20473;-71
2023/07/21 08:37:06;;;;;;;1.27;0.88;;;30.90;75.90;;;;;;5052688;28;20037;-71
2023/07/21 08:39:32;;;;;;;2.75;1.02;;;30.80;75.30;;;;;;5052535;28;20127;-71
2023/07/21 08:41:59;;;;;;;1.42;0.93;;;30.60;75.30;;;;;;5052793;28;20088;-71
2023/07/21 08:44:25;;;;;;;1.67;1.20;;;29.40;75.50;;;;;;5052495;28;20045;-70
2023/07/21 08:46:51;;;;;;;1.50;1.20;;;28.20;75.80;;;;;;5052673;28;20124;-71
2023/07/21 08:49:18;;;;;;;1.60;1.23;;;27.70;76.80;;;;;;5035250;28;20083;-70
2023/07/21 08:51:43;;;;;;;1.60;1.23;;;27.90;77.20;;;;;;5052311;28;20045;-69
2023/07/21 08:54:09;;;;;;;2.08;1.15;;;28.20;76.60;;;;;;5052341;28;20101;-69
2023/07/21 08:56:35;;;;;;;1.15;1.10;;;28.60;76.80;;;;;;5052380;28;20044;-69
2023/07/21 08:59:01;;;;;;;5.65;2.08;;;29.20;77.00;;;;;;5052754;28;20048;-69
2023/07/21 09:01:27;;;;;;;0.80;0.80;;;29.70;77.30;;;;;;5052274;28;20191;-69
2023/07/21 09:03:52;;;;;;;1.63;1.08;;;29.70;76.10;;;;;;5052079;28;20080;-69
2023/07/21 09:06:18;;;;;;;3.05;1.08;;;28.90;76.70;;;;;;5052473;28;20149;-70
2023/07/21 09:08:48;;;;;;;1.52;1.30;;;28.70;76.30;;;;;;5034359;28;20139;-70
2023/07/21 09:11:16;;;;;;;1.48;1.00;;;28.70;75.80;;;;;;5052600;28;20053;-70
2023/07/21 09:13:51;;;;;;;1.73;1.15;;;28.30;76.00;;;;;;5052059;28;20080;-70
2023/07/21 09:16:19;;;;;;;1.10;1.00;;;28.20;75.10;;;;;;5034594;28;20052;-70
2023/07/21 09:18:46;;;;;;;1.30;0.90;;;27.60;75.60;;;;;;5052327;28;20116;-70
2023/07/21 09:21:23;;;;;;;1.85;1.08;;;27.60;76.90;;;;;;5052134;28;20490;-68
2023/07/21 09:23:50;;;;;;;1.73;1.00;;;28.10;74.80;;;;;;5052156;28;20045;-67
2023/07/21 09:26:22;;;;;;;1.20;1.10;;;27.80;76.40;;;;;;5051965;28;20128;-70
2023/07/21 09:28:48;;;;;;;1.40;1.15;;;28.10;77.80;;;;;;5052153;28;20052;-67
2023/07/21 09:31:14;;;;;;;1.13;1.02;;;28.80;76.90;;;;;;5051915;28;20187;-70
2023/07/21 09:33:43;;;;;;;1.02;0.98;;;29.10;76.50;;;;;;5052065;28;20071;-69
2023/07/21 09:36:16;;;;;;;1.10;0.88;;;29.00;75.50;;;;;;5054343;28;20106;-70
2023/07/21 09:38:43;;;;;;;1.20;1.00;;;28.80;75.50;;;;;;5055884;28;20041;-70
2023/07/21 09:41:11;;;;;;;1.70;1.00;;;28.40;76.20;;;;;;5056060;28;20052;-69
2023/07/21 09:43:38;;;;;;;1.63;1.23;;;27.70;76.50;;;;;;5056436;28;20045;-69
2023/07/21 09:46:06;;;;;;;1.88;1.40;;;27.20;76.50;;;;;;5055963;28;20045;-69
2023/07/21 09:48:33;;;;;;;2.13;1.30;;;26.60;77.10;;;;;;5056130;28;20041;-69
2023/07/21 09:51:01;;;;;;;1.23;1.13;;;26.00;77.70;;;;;;5055910;28;20041;-69
2023/07/21 09:53:42;;;;;;;1.50;1.30;;;26.00;78.60;;;;;;5056027;28;20044;-69
2023/07/21 09:56:10;;;;;;;1.58;1.10;;;25.90;78.60;;;;;;5038063;28;20124;-69
2023/07/21 09:59:00;;;;;;;2.33;1.40;;;25.70;79.10;;;;;;5038221;28;20165;-69
2023/07/21 10:01:26;;;;;;;1.35;1.25;;;25.90;79.10;;;;;;5056264;28;20119;-69
2023/07/21 10:03:52;;;;;;;5.47;1.10;;;25.80;78.80;;;;;;5055639;28;20480;-69
2023/07/21 10:06:19;;;;;;;2.20;1.20;;;25.50;79.30;;;;;;5055733;28;20045;-69
2023/07/21 10:08:45;;;;;;;1.50;1.20;;;25.40;79.20;;;;;;5055195;28;20122;-68
2023/07/21 10:11:12;;;;;;;1.30;1.15;;;25.70;78.90;;;;;;5055444;28;20088;-69
2023/07/21 10:13:46;;;;;;;2.35;1.40;;;26.20;77.80;;;;;;5055434;28;20041;-68
2023/07/21 10:16:12;;;;;;;1.45;1.30;;;26.10;76.90;;;;;;5055591;28;20041;-69
2023/07/21 10:19:00;;;;;;;1.98;1.00;;;25.90;77.20;;;;;;5055426;28;20118;-69
2023/07/21 10:21:50;;;;;;;1.00;1.00;;;25.80;77.40;;;;;;5037639;28;20049;-69
2023/07/21 10:24:32;;;;;;;1.33;1.05;;;25.90;76.40;;;;;;5038043;28;20057;-69
2023/07/21 10:27:04;;;;;;;1.55;0.95;;;25.60;77.70;;;;;;5055399;28;20041;-69
2023/07/21 10:29:30;;;;;;;2.83;1.20;;;25.50;77.80;;;;;;5038037;28;20443;-69
2023/07/21 10:31:58;;;;;;;2.58;1.30;;;25.10;78.20;;;;;;5055144;28;20076;-68
2023/07/21 10:34:25;;;;;;;1.92;1.23;;;24.80;78.70;;;;;;5055523;28;20041;-69
2023/07/21 10:36:51;;;;;;;2.20;1.00;;;24.80;78.90;;;;;;5037501;28;20386;-68
2023/07/21 10:39:22;;;;;;;1.10;0.93;;;24.90;78.70;;;;;;5055141;28;20068;-68
2023/07/21 10:41:52;;;;;;;2.42;1.30;;;24.90;78.20;;;;;;5055233;28;20497;-68
2023/07/21 10:44:19;;;;;;;1.48;1.33;;;24.70;79.00;;;;;;5037470;28;20090;-69
2023/07/21 10:46:46;;;;;;;3.42;1.42;;;24.50;78.50;;;;;;5055240;28;20045;-68
2023/07/21 10:49:14;;;;;;;1.55;1.35;;;24.40;78.10;;;;;;5055280;28;20048;-69
2023/07/21 10:51:44;;;;;;;1.20;1.10;;;24.40;79.10;;;;;;5055246;28;20049;-69
2023/07/21 10:54:11;;;;;;;1.10;1.00;;;24.50;79.40;;;;;;5055468;28;20134;-69
2023/07/21 10:56:42;;;;;;;4.10;1.60;;;24.60;79.50;;;;;;5054816;28;20045;-69
2023/07/21 10:59:09;;;;;;;1.10;1.00;;;24.70;79.80;;;;;;5054756;28;20052;-68
2023/07/21 11:01:40;;;;;;;2.80;1.33;;;24.70;78.50;;;;;;5054545;28;20045;-69
2023/07/21 11:04:07;;;;;;;1.70;1.27;;;24.80;78.50;;;;;;5055298;28;20199;-69
2023/07/21 11:06:37;;;;;;;3.67;1.63;;;25.10;79.80;;;;;;5054883;28;20049;-69
2023/07/21 11:09:03;;;;;;;1.40;1.30;;;25.40;79.70;;;;;;5055053;28;20478;-68
2023/07/21 11:11:29;;;;;;;1.65;1.52;;;25.40;77.60;;;;;;5054495;28;20087;-69
2023/07/21 11:13:55;;;;;;;1.58;1.48;;;25.40;76.70;;;;;;5054615;28;20048;-69
2023/07/21 11:16:21;;;;;;;2.22;1.30;;;25.40;77.80;;;;;;5054532;28;20041;-70
2023/07/21 11:18:47;;;;;;;1.40;1.30;;;25.40;78.90;;;;;;5036605;28;20114;-69
2023/07/21 11:21:12;;;;;;;1.40;1.30;;;25.20;78.60;;;;;;5055486;28;20049;-69
2023/07/21 11:23:38;;;;;;;1.48;1.25;;;25.20;78.80;;;;;;5063217;28;20049;-70
2023/07/21 11:26:06;;;;;;;1.95;1.30;;;25.30;78.50;;;;;;5062331;28;20048;-69
2023/07/21 11:28:33;;;;;;;1.45;1.35;;;25.30;78.00;;;;;;5062155;28;20523;-69
2023/07/21 11:31:03;;;;;;;2.03;1.83;;;25.50;78.80;;;;;;5062261;28;20044;-69
2023/07/21 11:33:48;;;;;;;2.20;1.40;;;25.50;77.60;;;;;;5059598;28;20045;-69
2023/07/21 11:36:15;;;;;;;2.10;1.80;;;25.70;76.80;;;;;;5053567;28;20481;-68
2023/07/21 11:38:42;;;;;;;2.17;1.50;;;25.70;77.30;;;;;;5036012;28;20377;-70
2023/07/21 11:41:08;;;;;;;2.00;1.80;;;25.70;76.60;;;;;;5054288;28;20049;-69
2023/07/21 11:43:49;;;;;;;1.70;1.60;;;25.80;76.00;;;;;;5054150;28;20198;-69
2023/07/21 11:46:24;;;;;;;2.60;1.92;;;25.70;75.40;;;;;;5053518;28;20080;-68
2023/07/21 11:48:54;;;;;;;2.13;1.60;;;25.40;75.90;;;;;;5035815;28;20092;-69
2023/07/21 11:51:22;;;;;;;1.63;1.27;;;25.40;76.30;;;;;;5053499;28;20446;-69
2023/07/21 11:53:49;;;;;;;2.35;1.80;;;25.40;78.10;;;;;;5053074;28;20386;-69
2023/07/21 11:56:15;;;;;;;1.90;1.17;;;25.30;78.20;;;;;;5035836;28;20470;-68
2023/07/21 11:58:41;;;;;;;2.80;2.00;;;25.40;78.30;;;;;;5035228;28;20123;-68
2023/07/21 12:01:07;;;;;;;1.83;1.33;;;25.50;77.60;;;;;;5053373;28;20048;-68
2023/07/21 12:03:42;;;;;;;1.95;1.58;;;25.20;77.10;;;;;;5019711;28;20052;-68
2023/07/21 12:06:10;;;;;;;1.65;1.33;;;25.10;75.80;;;;;;5053142;28;20041;-68
2023/07/21 12:08:36;;;;;;;1.20;1.10;;;25.20;76.00;;;;;;5019136;28;20064;-68
2023/07/21 12:11:02;;;;;;;1.80;1.52;;;25.20;76.50;;;;;;5052583;28;20494;-68
2023/07/21 12:13:27;;;;;;;1.20;1.10;;;25.10;76.30;;;;;;5052941;28;20052;-69
2023/07/21 12:15:53;;;;;;;1.83;1.33;;;24.90;75.90;;;;;;5035639;28;20045;-68
2023/07/21 12:18:19;;;;;;;1.67;1.27;;;24.90;76.40;;;;;;5053398;28;20041;-69
2023/07/21 12:20:45;;;;;;;2.10;1.40;;;25.10;76.50;;;;;;5035288;28;20037;-69
2023/07/21 12:23:11;;;;;;;1.77;1.30;;;25.30;74.60;;;;;;5053102;28;20045;-68
2023/07/21 12:25:37;;;;;;;1.77;1.00;;;25.20;76.10;;;;;;5052722;28;20044;-69
2023/07/21 12:28:04;;;;;;;1.70;1.60;;;25.00;76.10;;;;;;5035485;28;20055;-69
2023/07/21 12:30:30;;;;;;;1.73;1.35;;;24.90;76.50;;;;;;5035083;28;20045;-69
2023/07/21 12:32:55;;;;;;;1.42;1.33;;;24.70;76.70;;;;;;5052369;28;20052;-69
2023/07/21 12:35:21;;;;;;;2.10;1.40;;;24.30;77.00;;;;;;5053192;28;20086;-69
2023/07/21 12:37:47;;;;;;;1.77;1.42;;;24.00;77.10;;;;;;5053303;28;20068;-69
2023/07/21 12:40:13;;;;;;;1.33;1.00;;;23.80;77.40;;;;;;5052810;28;20450;-69
2023/07/21 12:42:40;;;;;;;2.33;1.05;;;23.70;77.90;;;;;;5053132;28;20081;-69
2023/07/21 12:45:06;;;;;;;2.65;1.30;;;23.60;78.20;;;;;;5052532;28;20495;-69
2023/07/21 12:47:32;;;;;;;4.88;1.25;;;23.60;78.20;;;;;;5052935;28;20095;-69